sensor_id;sensor_type;location;lat;lon;timestamp;temperature;humidity
21759;DHT22;11041;50.854;20.580;2022-09-09T00:02:20;18.00;99.90
21759;DHT22;11041;50.854;20.580;2022-09-09T00:05:14;17.90;99.90
21759;DHT22;11041;50.854;20.580;2022-09-09T00:07:55;17.90;99.90
21759;DHT22;11041;50.854;20.580;2022-09-09T00:16:27;18.00;99.90
21759;DHT22;11041;50.854;20.580;2022-09-09T00:24:57;17.90;99.90
21759;DHT22;11041;50.854;20.580;2022-09-09T00:27:40;17.90;99.90
21759;DHT22;11041;50.854;20.580;2022-09-09T00:30:26;17.90;99.90
21759;DHT22;11041;50.854;20.580;2022-09-09T00:33:09;17.90;99.90
21759;DHT22;11041;50.854;20.580;2022-09-09T00:35:58;18.00;99.90
21759;DHT22;11041;50.854;20.580;2022-09-09T00:38:37;18.00;99.90
21759;DHT22;11041;50.854;20.580;2022-09-09T00:44:25;17.90;99.90
21759;DHT22;11041;50.854;20.580;2022-09-09T00:56:18;17.90;99.90
21759;DHT22;11041;50.854;20.580;2022-09-09T00:59:24;17.90;99.90
21759;DHT22;11041;50.854;20.580;2022-09-09T01:02:11;17.80;99.90
21759;DHT22;11041;50.854;20.580;2022-09-09T01:04:48;17.90;99.90
21759;DHT22;11041;50.854;20.580;2022-09-09T01:07:18;17.80;99.90
21759;DHT22;11041;50.854;20.580;2022-09-09T01:09:52;17.90;99.90
21759;DHT22;11041;50.854;20.580;2022-09-09T01:12:39;17.90;99.90
21759;DHT22;11041;50.854;20.580;2022-09-09T01:15:27;17.90;99.90
21759;DHT22;11041;50.854;20.580;2022-09-09T01:18:04;18.00;99.90
21759;DHT22;11041;50.854;20.580;2022-09-09T01:26:41;17.90;99.90
21759;DHT22;11041;50.854;20.580;2022-09-09T01:29:15;17.90;99.90
21759;DHT22;11041;50.854;20.580;2022-09-09T01:32:35;17.80;99.90
21759;DHT22;11041;50.854;20.580;2022-09-09T01:35:20;17.80;99.90
21759;DHT22;11041;50.854;20.580;2022-09-09T01:37:56;17.80;99.90
21759;DHT22;11041;50.854;20.580;2022-09-09T01:40:23;17.80;99.90
21759;DHT22;11041;50.854;20.580;2022-09-09T01:42:51;17.80;99.90
21759;DHT22;11041;50.854;20.580;2022-09-09T01:45:19;17.80;99.90
21759;DHT22;11041;50.854;20.580;2022-09-09T01:47:47;17.80;99.90
21759;DHT22;11041;50.854;20.580;2022-09-09T01:50:16;17.80;99.90
21759;DHT22;11041;50.854;20.580;2022-09-09T01:52:46;17.80;99.90
21759;DHT22;11041;50.854;20.580;2022-09-09T01:55:28;17.80;99.90
21759;DHT22;11041;50.854;20.580;2022-09-09T01:58:04;17.70;99.90
21759;DHT22;11041;50.854;20.580;2022-09-09T02:07:38;17.60;99.90
21759;DHT22;11041;50.854;20.580;2022-09-09T02:10:20;17.70;99.90
21759;DHT22;11041;50.854;20.580;2022-09-09T02:13:07;17.60;99.90
21759;DHT22;11041;50.854;20.580;2022-09-09T02:18:32;17.60;99.90
21759;DHT22;11041;50.854;20.580;2022-09-09T02:21:22;17.60;99.90
21759;DHT22;11041;50.854;20.580;2022-09-09T02:23:50;17.60;99.90
21759;DHT22;11041;50.854;20.580;2022-09-09T02:26:19;17.60;99.90
21759;DHT22;11041;50.854;20.580;2022-09-09T02:28:50;17.50;99.90
21759;DHT22;11041;50.854;20.580;2022-09-09T02:31:22;17.50;99.90
21759;DHT22;11041;50.854;20.580;2022-09-09T02:33:55;17.50;99.90
21759;DHT22;11041;50.854;20.580;2022-09-09T02:36:29;17.50;99.90
21759;DHT22;11041;50.854;20.580;2022-09-09T02:39:00;17.50;99.90
21759;DHT22;11041;50.854;20.580;2022-09-09T02:41:31;17.50;99.90
21759;DHT22;11041;50.854;20.580;2022-09-09T02:44:01;17.60;99.90
21759;DHT22;11041;50.854;20.580;2022-09-09T02:49:27;17.60;99.90
21759;DHT22;11041;50.854;20.580;2022-09-09T02:52:15;17.60;99.90
21759;DHT22;11041;50.854;20.580;2022-09-09T02:55:24;17.60;99.90
21759;DHT22;11041;50.854;20.580;2022-09-09T02:58:16;17.50;99.90
21759;DHT22;11041;50.854;20.580;2022-09-09T03:00:48;17.50;99.90
21759;DHT22;11041;50.854;20.580;2022-09-09T03:03:17;17.60;99.90
21759;DHT22;11041;50.854;20.580;2022-09-09T03:05:45;17.50;99.90
21759;DHT22;11041;50.854;20.580;2022-09-09T03:08:13;17.50;99.90
21759;DHT22;11041;50.854;20.580;2022-09-09T03:10:40;17.50;99.90
21759;DHT22;11041;50.854;20.580;2022-09-09T03:13:07;17.50;99.90
21759;DHT22;11041;50.854;20.580;2022-09-09T03:15:33;17.50;99.90
21759;DHT22;11041;50.854;20.580;2022-09-09T03:18:01;17.50;99.90
21759;DHT22;11041;50.854;20.580;2022-09-09T03:20:29;17.50;99.90
21759;DHT22;11041;50.854;20.580;2022-09-09T03:22:57;17.50;99.90
21759;DHT22;11041;50.854;20.580;2022-09-09T03:25:26;17.50;99.90
21759;DHT22;11041;50.854;20.580;2022-09-09T03:27:53;17.50;99.90
21759;DHT22;11041;50.854;20.580;2022-09-09T03:30:22;17.40;99.90
21759;DHT22;11041;50.854;20.580;2022-09-09T03:32:50;17.40;99.90
21759;DHT22;11041;50.854;20.580;2022-09-09T03:35:18;17.40;99.90
21759;DHT22;11041;50.854;20.580;2022-09-09T03:37:45;17.50;99.90
21759;DHT22;11041;50.854;20.580;2022-09-09T03:40:12;17.40;99.90
21759;DHT22;11041;50.854;20.580;2022-09-09T03:42:39;17.40;99.90
21759;DHT22;11041;50.854;20.580;2022-09-09T03:45:08;17.40;99.90
21759;DHT22;11041;50.854;20.580;2022-09-09T03:47:36;17.40;99.90
21759;DHT22;11041;50.854;20.580;2022-09-09T03:50:04;17.40;99.90
21759;DHT22;11041;50.854;20.580;2022-09-09T03:52:35;17.40;99.90
21759;DHT22;11041;50.854;20.580;2022-09-09T03:55:04;17.20;99.90
21759;DHT22;11041;50.854;20.580;2022-09-09T03:57:32;17.20;99.90
21759;DHT22;11041;50.854;20.580;2022-09-09T04:00:05;17.10;99.90
21759;DHT22;11041;50.854;20.580;2022-09-09T04:02:33;17.10;99.90
21759;DHT22;11041;50.854;20.580;2022-09-09T04:05:00;17.00;99.90
21759;DHT22;11041;50.854;20.580;2022-09-09T04:07:26;17.00;99.90
21759;DHT22;11041;50.854;20.580;2022-09-09T04:09:54;16.90;99.90
21759;DHT22;11041;50.854;20.580;2022-09-09T04:12:21;16.80;99.90
21759;DHT22;11041;50.854;20.580;2022-09-09T04:14:48;16.80;99.90
21759;DHT22;11041;50.854;20.580;2022-09-09T04:17:15;16.90;99.90
21759;DHT22;11041;50.854;20.580;2022-09-09T04:19:43;16.90;99.90
21759;DHT22;11041;50.854;20.580;2022-09-09T04:22:09;16.70;99.90
21759;DHT22;11041;50.854;20.580;2022-09-09T04:24:36;16.80;99.90
21759;DHT22;11041;50.854;20.580;2022-09-09T04:27:02;16.80;99.90
21759;DHT22;11041;50.854;20.580;2022-09-09T04:29:29;16.90;99.90
21759;DHT22;11041;50.854;20.580;2022-09-09T04:31:55;16.70;99.90
21759;DHT22;11041;50.854;20.580;2022-09-09T04:34:22;16.80;99.90
21759;DHT22;11041;50.854;20.580;2022-09-09T04:36:48;16.70;99.90
21759;DHT22;11041;50.854;20.580;2022-09-09T04:39:15;16.60;99.90
21759;DHT22;11041;50.854;20.580;2022-09-09T04:41:41;16.70;99.90
21759;DHT22;11041;50.854;20.580;2022-09-09T04:44:07;16.60;99.90
21759;DHT22;11041;50.854;20.580;2022-09-09T04:46:36;16.60;99.90
21759;DHT22;11041;50.854;20.580;2022-09-09T04:49:02;16.60;99.90
21759;DHT22;11041;50.854;20.580;2022-09-09T04:51:29;16.60;99.90
21759;DHT22;11041;50.854;20.580;2022-09-09T04:53:57;16.70;99.90
21759;DHT22;11041;50.854;20.580;2022-09-09T04:56:24;16.70;99.90
21759;DHT22;11041;50.854;20.580;2022-09-09T04:58:52;16.70;99.90
21759;DHT22;11041;50.854;20.580;2022-09-09T05:01:21;16.60;99.90
21759;DHT22;11041;50.854;20.580;2022-09-09T05:03:48;16.70;99.90
21759;DHT22;11041;50.854;20.580;2022-09-09T05:06:17;16.70;99.90
21759;DHT22;11041;50.854;20.580;2022-09-09T05:08:47;16.70;99.90
21759;DHT22;11041;50.854;20.580;2022-09-09T05:14:03;16.80;99.90
21759;DHT22;11041;50.854;20.580;2022-09-09T05:16:30;16.70;99.90
21759;DHT22;11041;50.854;20.580;2022-09-09T05:18:57;16.60;99.90
21759;DHT22;11041;50.854;20.580;2022-09-09T05:21:25;16.70;99.90
21759;DHT22;11041;50.854;20.580;2022-09-09T05:23:52;16.80;99.90
21759;DHT22;11041;50.854;20.580;2022-09-09T05:26:21;16.80;99.90
21759;DHT22;11041;50.854;20.580;2022-09-09T05:28:49;16.80;99.90
21759;DHT22;11041;50.854;20.580;2022-09-09T05:31:17;16.80;99.90
21759;DHT22;11041;50.854;20.580;2022-09-09T05:33:46;16.80;99.90
21759;DHT22;11041;50.854;20.580;2022-09-09T05:36:18;17.00;99.90
21759;DHT22;11041;50.854;20.580;2022-09-09T05:38:46;16.80;99.90
21759;DHT22;11041;50.854;20.580;2022-09-09T05:41:14;16.80;99.90
21759;DHT22;11041;50.854;20.580;2022-09-09T05:43:44;16.90;99.90
21759;DHT22;11041;50.854;20.580;2022-09-09T05:46:20;16.90;99.90
21759;DHT22;11041;50.854;20.580;2022-09-09T05:48:49;16.90;99.90
21759;DHT22;11041;50.854;20.580;2022-09-09T05:51:22;17.00;99.90
21759;DHT22;11041;50.854;20.580;2022-09-09T05:53:52;17.00;99.90
21759;DHT22;11041;50.854;20.580;2022-09-09T05:56:22;17.00;99.90
21759;DHT22;11041;50.854;20.580;2022-09-09T05:58:52;16.90;99.90
21759;DHT22;11041;50.854;20.580;2022-09-09T06:01:25;16.90;99.90
21759;DHT22;11041;50.854;20.580;2022-09-09T06:03:55;16.90;99.90
21759;DHT22;11041;50.854;20.580;2022-09-09T06:06:24;16.80;99.90
21759;DHT22;11041;50.854;20.580;2022-09-09T06:08:54;16.80;99.90
21759;DHT22;11041;50.854;20.580;2022-09-09T06:11:26;16.90;99.90
21759;DHT22;11041;50.854;20.580;2022-09-09T06:14:22;16.90;99.90
21759;DHT22;11041;50.854;20.580;2022-09-09T06:17:13;16.90;99.90
21759;DHT22;11041;50.854;20.580;2022-09-09T06:20:05;16.90;99.90
21759;DHT22;11041;50.854;20.580;2022-09-09T06:22:56;16.90;99.90
21759;DHT22;11041;50.854;20.580;2022-09-09T06:25:47;16.90;99.90
21759;DHT22;11041;50.854;20.580;2022-09-09T06:28:40;17.00;99.90
21759;DHT22;11041;50.854;20.580;2022-09-09T06:31:34;17.00;99.90
21759;DHT22;11041;50.854;20.580;2022-09-09T06:34:27;17.00;99.90
21759;DHT22;11041;50.854;20.580;2022-09-09T06:37:19;17.00;99.90
21759;DHT22;11041;50.854;20.580;2022-09-09T06:40:11;17.00;99.90
21759;DHT22;11041;50.854;20.580;2022-09-09T07:54:18;18.00;99.90
21759;DHT22;11041;50.854;20.580;2022-09-09T07:56:46;18.20;99.90
21759;DHT22;11041;50.854;20.580;2022-09-09T07:59:13;18.30;99.90
21759;DHT22;11041;50.854;20.580;2022-09-09T08:01:43;18.20;99.90
21759;DHT22;11041;50.854;20.580;2022-09-09T08:04:17;18.20;99.90
21759;DHT22;11041;50.854;20.580;2022-09-09T08:06:50;18.30;99.90
21759;DHT22;11041;50.854;20.580;2022-09-09T08:09:24;18.50;99.90
21759;DHT22;11041;50.854;20.580;2022-09-09T08:11:56;18.50;99.90
21759;DHT22;11041;50.854;20.580;2022-09-09T08:14:24;18.70;99.90
21759;DHT22;11041;50.854;20.580;2022-09-09T08:16:51;18.90;99.90
21759;DHT22;11041;50.854;20.580;2022-09-09T08:19:20;18.80;99.90
21759;DHT22;11041;50.854;20.580;2022-09-09T08:21:47;18.80;99.90
21759;DHT22;11041;50.854;20.580;2022-09-09T08:24:15;18.70;99.90
21759;DHT22;11041;50.854;20.580;2022-09-09T08:26:44;18.80;99.90
21759;DHT22;11041;50.854;20.580;2022-09-09T08:29:15;18.80;99.90
21759;DHT22;11041;50.854;20.580;2022-09-09T08:31:49;18.80;99.90
21759;DHT22;11041;50.854;20.580;2022-09-09T08:34:21;18.70;99.90
21759;DHT22;11041;50.854;20.580;2022-09-09T08:36:49;18.80;99.90
21759;DHT22;11041;50.854;20.580;2022-09-09T08:39:19;19.10;99.90
21759;DHT22;11041;50.854;20.580;2022-09-09T08:47:31;19.20;99.90
21759;DHT22;11041;50.854;20.580;2022-09-09T08:50:37;19.00;99.90
21759;DHT22;11041;50.854;20.580;2022-09-09T08:58:19;19.00;99.90
21759;DHT22;11041;50.854;20.580;2022-09-09T09:04:37;19.30;99.90
21759;DHT22;11041;50.854;20.580;2022-09-09T09:10:02;19.10;99.90
21759;DHT22;11041;50.854;20.580;2022-09-09T09:12:40;19.20;99.90
21759;DHT22;11041;50.854;20.580;2022-09-09T09:15:21;19.40;99.90
21759;DHT22;11041;50.854;20.580;2022-09-09T09:17:50;19.50;99.90
21759;DHT22;11041;50.854;20.580;2022-09-09T09:20:23;19.70;99.90
21759;DHT22;11041;50.854;20.580;2022-09-09T09:23:19;19.70;99.90
21759;DHT22;11041;50.854;20.580;2022-09-09T09:25:51;19.80;99.90
21759;DHT22;11041;50.854;20.580;2022-09-09T09:28:25;19.80;99.90
21759;DHT22;11041;50.854;20.580;2022-09-09T09:31:00;19.70;99.90
21759;DHT22;11041;50.854;20.580;2022-09-09T09:33:38;19.80;99.90
21759;DHT22;11041;50.854;20.580;2022-09-09T09:36:08;20.00;99.90
21759;DHT22;11041;50.854;20.580;2022-09-09T09:38:35;20.20;99.90
21759;DHT22;11041;50.854;20.580;2022-09-09T09:41:03;20.20;99.90
21759;DHT22;11041;50.854;20.580;2022-09-09T09:43:35;20.10;99.90
21759;DHT22;11041;50.854;20.580;2022-09-09T09:46:19;20.10;99.90
21759;DHT22;11041;50.854;20.580;2022-09-09T09:48:59;20.20;99.90
21759;DHT22;11041;50.854;20.580;2022-09-09T09:51:30;20.30;99.90
21759;DHT22;11041;50.854;20.580;2022-09-09T09:56:46;20.30;99.90
21759;DHT22;11041;50.854;20.580;2022-09-09T09:59:39;20.30;99.90
21759;DHT22;11041;50.854;20.580;2022-09-09T10:02:25;20.60;99.90
21759;DHT22;11041;50.854;20.580;2022-09-09T10:05:22;20.70;99.90
21759;DHT22;11041;50.854;20.580;2022-09-09T10:08:10;20.60;99.90
21759;DHT22;11041;50.854;20.580;2022-09-09T10:11:13;20.60;99.90
21759;DHT22;11041;50.854;20.580;2022-09-09T10:20:54;20.60;99.90
21759;DHT22;11041;50.854;20.580;2022-09-09T10:39:23;21.50;99.90
21759;DHT22;11041;50.854;20.580;2022-09-09T10:42:12;21.50;99.90
21759;DHT22;11041;50.854;20.580;2022-09-09T10:51:17;21.60;99.90
21759;DHT22;11041;50.854;20.580;2022-09-09T11:00:03;21.90;99.90
21759;DHT22;11041;50.854;20.580;2022-09-09T11:02:33;21.80;99.90
21759;DHT22;11041;50.854;20.580;2022-09-09T11:08:23;22.10;99.90
21759;DHT22;11041;50.854;20.580;2022-09-09T11:11:03;22.10;99.90
21759;DHT22;11041;50.854;20.580;2022-09-09T11:13:55;21.90;99.90
21759;DHT22;11041;50.854;20.580;2022-09-09T11:17:03;22.00;99.90
21759;DHT22;11041;50.854;20.580;2022-09-09T11:19:41;22.00;99.90
21759;DHT22;11041;50.854;20.580;2022-09-09T11:25:32;22.10;99.90
21759;DHT22;11041;50.854;20.580;2022-09-09T11:31:41;22.10;99.90
21759;DHT22;11041;50.854;20.580;2022-09-09T11:42:34;22.60;99.90
21759;DHT22;11041;50.854;20.580;2022-09-09T11:45:21;22.90;99.90
21759;DHT22;11041;50.854;20.580;2022-09-09T11:47:53;23.10;99.90
21759;DHT22;11041;50.854;20.580;2022-09-09T11:52:50;23.50;99.90
21759;DHT22;11041;50.854;20.580;2022-09-09T11:55:32;23.40;99.90
21759;DHT22;11041;50.854;20.580;2022-09-09T12:00:39;23.50;99.90
21759;DHT22;11041;50.854;20.580;2022-09-09T12:03:40;23.50;99.90
21759;DHT22;11041;50.854;20.580;2022-09-09T12:06:11;23.70;99.90
21759;DHT22;11041;50.854;20.580;2022-09-09T12:09:06;23.70;99.90
21759;DHT22;11041;50.854;20.580;2022-09-09T12:11:41;23.40;99.90
21759;DHT22;11041;50.854;20.580;2022-09-09T12:14:23;23.80;99.90
21759;DHT22;11041;50.854;20.580;2022-09-09T12:17:23;23.70;99.90
21759;DHT22;11041;50.854;20.580;2022-09-09T12:20:30;23.80;99.90
21759;DHT22;11041;50.854;20.580;2022-09-09T12:32:23;23.40;99.90
21759;DHT22;11041;50.854;20.580;2022-09-09T12:38:02;23.40;99.90
21759;DHT22;11041;50.854;20.580;2022-09-09T12:40:34;23.20;99.90
21759;DHT22;11041;50.854;20.580;2022-09-09T12:43:14;23.20;99.90
21759;DHT22;11041;50.854;20.580;2022-09-09T12:46:02;23.20;99.90
21759;DHT22;11041;50.854;20.580;2022-09-09T12:48:38;23.30;99.90
21759;DHT22;11041;50.854;20.580;2022-09-09T12:51:28;23.20;99.90
21759;DHT22;11041;50.854;20.580;2022-09-09T12:53:57;23.30;99.90
21759;DHT22;11041;50.854;20.580;2022-09-09T12:56:28;23.30;99.90
21759;DHT22;11041;50.854;20.580;2022-09-09T12:58:58;23.50;99.90
21759;DHT22;11041;50.854;20.580;2022-09-09T13:01:27;23.50;99.90
21759;DHT22;11041;50.854;20.580;2022-09-09T13:03:56;23.30;99.90
21759;DHT22;11041;50.854;20.580;2022-09-09T13:06:30;23.10;99.90
21759;DHT22;11041;50.854;20.580;2022-09-09T13:08:59;23.00;99.90
21759;DHT22;11041;50.854;20.580;2022-09-09T13:11:33;23.20;99.90
21759;DHT22;11041;50.854;20.580;2022-09-09T13:14:05;23.10;99.90
21759;DHT22;11041;50.854;20.580;2022-09-09T13:16:34;23.60;99.90
21759;DHT22;11041;50.854;20.580;2022-09-09T13:19:13;23.90;99.90
21759;DHT22;11041;50.854;20.580;2022-09-09T13:21:42;24.00;99.90
21759;DHT22;11041;50.854;20.580;2022-09-09T13:24:31;24.00;99.90
21759;DHT22;11041;50.854;20.580;2022-09-09T13:27:05;24.10;99.90
21759;DHT22;11041;50.854;20.580;2022-09-09T13:35:54;24.40;99.90
21759;DHT22;11041;50.854;20.580;2022-09-09T13:38:23;24.30;99.90
21759;DHT22;11041;50.854;20.580;2022-09-09T13:41:10;24.40;99.90
21759;DHT22;11041;50.854;20.580;2022-09-09T13:43:45;24.40;99.90
21759;DHT22;11041;50.854;20.580;2022-09-09T13:46:34;24.30;99.90
21759;DHT22;11041;50.854;20.580;2022-09-09T13:51:41;24.30;99.90
21759;DHT22;11041;50.854;20.580;2022-09-09T13:54:11;24.30;99.90
21759;DHT22;11041;50.854;20.580;2022-09-09T13:56:41;24.00;99.90
21759;DHT22;11041;50.854;20.580;2022-09-09T13:59:13;23.80;99.90
21759;DHT22;11041;50.854;20.580;2022-09-09T14:01:42;23.90;99.90
21759;DHT22;11041;50.854;20.580;2022-09-09T14:04:10;24.00;99.90
21759;DHT22;11041;50.854;20.580;2022-09-09T14:06:36;24.20;99.90
21759;DHT22;11041;50.854;20.580;2022-09-09T14:09:06;24.50;99.90
21759;DHT22;11041;50.854;20.580;2022-09-09T14:11:38;24.30;99.90
21759;DHT22;11041;50.854;20.580;2022-09-09T14:14:09;24.40;99.90
21759;DHT22;11041;50.854;20.580;2022-09-09T14:16:36;24.50;99.90
21759;DHT22;11041;50.854;20.580;2022-09-09T14:19:03;24.90;99.90
21759;DHT22;11041;50.854;20.580;2022-09-09T14:21:30;25.20;99.90
21759;DHT22;11041;50.854;20.580;2022-09-09T14:23:57;25.50;99.90
21759;DHT22;11041;50.854;20.580;2022-09-09T14:26:24;25.50;99.90
21759;DHT22;11041;50.854;20.580;2022-09-09T14:28:52;25.40;99.90
21759;DHT22;11041;50.854;20.580;2022-09-09T14:31:18;25.10;99.90
21759;DHT22;11041;50.854;20.580;2022-09-09T14:33:45;24.90;99.90
21759;DHT22;11041;50.854;20.580;2022-09-09T14:36:12;24.80;99.90
21759;DHT22;11041;50.854;20.580;2022-09-09T14:38:39;24.30;99.90
21759;DHT22;11041;50.854;20.580;2022-09-09T14:41:06;24.40;99.90
21759;DHT22;11041;50.854;20.580;2022-09-09T14:43:34;24.30;99.90
21759;DHT22;11041;50.854;20.580;2022-09-09T14:46:10;23.80;99.90
21759;DHT22;11041;50.854;20.580;2022-09-09T14:48:38;23.70;99.90
21759;DHT22;11041;50.854;20.580;2022-09-09T14:51:22;23.30;99.90
21759;DHT22;11041;50.854;20.580;2022-09-09T14:53:55;23.10;99.90
21759;DHT22;11041;50.854;20.580;2022-09-09T14:56:25;22.90;99.90
21759;DHT22;11041;50.854;20.580;2022-09-09T14:58:54;22.80;99.90
21759;DHT22;11041;50.854;20.580;2022-09-09T15:01:23;22.50;99.90
21759;DHT22;11041;50.854;20.580;2022-09-09T15:03:53;22.30;99.90
21759;DHT22;11041;50.854;20.580;2022-09-09T15:06:22;22.20;99.90
21759;DHT22;11041;50.854;20.580;2022-09-09T15:08:51;22.00;99.90
21759;DHT22;11041;50.854;20.580;2022-09-09T15:11:20;22.00;99.90
21759;DHT22;11041;50.854;20.580;2022-09-09T15:13:51;21.80;99.90
21759;DHT22;11041;50.854;20.580;2022-09-09T15:16:23;21.80;99.90
21759;DHT22;11041;50.854;20.580;2022-09-09T15:18:53;21.70;99.90
21759;DHT22;11041;50.854;20.580;2022-09-09T15:21:26;21.60;99.90
21759;DHT22;11041;50.854;20.580;2022-09-09T15:23:55;21.50;99.90
21759;DHT22;11041;50.854;20.580;2022-09-09T15:26:23;21.50;99.90
21759;DHT22;11041;50.854;20.580;2022-09-09T15:28:50;21.60;99.90
21759;DHT22;11041;50.854;20.580;2022-09-09T15:31:22;21.60;99.90
21759;DHT22;11041;50.854;20.580;2022-09-09T15:33:55;21.60;99.90
21759;DHT22;11041;50.854;20.580;2022-09-09T15:36:29;21.70;99.90
21759;DHT22;11041;50.854;20.580;2022-09-09T15:39:05;21.70;99.90
21759;DHT22;11041;50.854;20.580;2022-09-09T15:41:34;21.60;99.90
21759;DHT22;11041;50.854;20.580;2022-09-09T15:44:01;21.60;99.90
21759;DHT22;11041;50.854;20.580;2022-09-09T15:46:45;21.60;99.90
21759;DHT22;11041;50.854;20.580;2022-09-09T15:49:19;21.60;99.90
21759;DHT22;11041;50.854;20.580;2022-09-09T15:51:56;21.60;99.90
21759;DHT22;11041;50.854;20.580;2022-09-09T15:54:26;21.50;99.90
21759;DHT22;11041;50.854;20.580;2022-09-09T15:56:55;21.40;99.90
21759;DHT22;11041;50.854;20.580;2022-09-09T15:59:25;21.20;99.90
21759;DHT22;11041;50.854;20.580;2022-09-09T16:01:55;21.00;99.90
21759;DHT22;11041;50.854;20.580;2022-09-09T16:04:23;21.10;99.90
21759;DHT22;11041;50.854;20.580;2022-09-09T16:07:06;20.90;99.90
21759;DHT22;11041;50.854;20.580;2022-09-09T16:09:34;20.90;99.90
21759;DHT22;11041;50.854;20.580;2022-09-09T16:12:03;20.90;99.90
21759;DHT22;11041;50.854;20.580;2022-09-09T16:14:35;20.90;99.90
21759;DHT22;11041;50.854;20.580;2022-09-09T16:17:03;20.80;99.90
21759;DHT22;11041;50.854;20.580;2022-09-09T16:19:32;20.90;99.90
21759;DHT22;11041;50.854;20.580;2022-09-09T16:22:00;20.80;99.90
21759;DHT22;11041;50.854;20.580;2022-09-09T16:24:27;20.80;99.90
21759;DHT22;11041;50.854;20.580;2022-09-09T16:26:54;20.80;99.90
21759;DHT22;11041;50.854;20.580;2022-09-09T16:29:22;20.70;99.90
21759;DHT22;11041;50.854;20.580;2022-09-09T16:31:50;20.70;99.90
21759;DHT22;11041;50.854;20.580;2022-09-09T16:34:18;20.70;99.90
21759;DHT22;11041;50.854;20.580;2022-09-09T16:36:45;20.50;99.90
21759;DHT22;11041;50.854;20.580;2022-09-09T16:39:15;20.50;99.90
21759;DHT22;11041;50.854;20.580;2022-09-09T16:41:44;20.40;99.90
21759;DHT22;11041;50.854;20.580;2022-09-09T16:44:13;20.40;99.90
21759;DHT22;11041;50.854;20.580;2022-09-09T16:46:43;20.30;99.90
21759;DHT22;11041;50.854;20.580;2022-09-09T16:49:14;20.20;99.90
21759;DHT22;11041;50.854;20.580;2022-09-09T16:51:47;20.10;99.90
21759;DHT22;11041;50.854;20.580;2022-09-09T16:54:16;20.00;99.90
21759;DHT22;11041;50.854;20.580;2022-09-09T16:56:46;20.00;99.90
21759;DHT22;11041;50.854;20.580;2022-09-09T16:59:21;19.90;99.90
21759;DHT22;11041;50.854;20.580;2022-09-09T17:01:51;19.70;99.90
21759;DHT22;11041;50.854;20.580;2022-09-09T17:04:22;19.70;99.90
21759;DHT22;11041;50.854;20.580;2022-09-09T17:06:55;19.60;99.90
21759;DHT22;11041;50.854;20.580;2022-09-09T17:09:24;19.50;99.90
21759;DHT22;11041;50.854;20.580;2022-09-09T17:11:55;19.30;99.90
21759;DHT22;11041;50.854;20.580;2022-09-09T17:14:22;19.30;99.90
21759;DHT22;11041;50.854;20.580;2022-09-09T17:16:50;19.20;99.90
21759;DHT22;11041;50.854;20.580;2022-09-09T17:19:17;19.10;99.90
21759;DHT22;11041;50.854;20.580;2022-09-09T17:21:43;19.10;99.90
21759;DHT22;11041;50.854;20.580;2022-09-09T17:24:12;19.00;99.90
21759;DHT22;11041;50.854;20.580;2022-09-09T17:26:39;19.00;99.90
21759;DHT22;11041;50.854;20.580;2022-09-09T17:29:06;18.90;99.90
21759;DHT22;11041;50.854;20.580;2022-09-09T17:31:33;18.80;99.90
21759;DHT22;11041;50.854;20.580;2022-09-09T17:34:00;18.80;99.90
21759;DHT22;11041;50.854;20.580;2022-09-09T17:36:32;18.70;99.90
21759;DHT22;11041;50.854;20.580;2022-09-09T17:39:00;18.70;99.90
21759;DHT22;11041;50.854;20.580;2022-09-09T17:41:40;18.60;99.90
21759;DHT22;11041;50.854;20.580;2022-09-09T17:44:07;18.60;99.90
21759;DHT22;11041;50.854;20.580;2022-09-09T17:46:40;18.50;99.90
21759;DHT22;11041;50.854;20.580;2022-09-09T17:49:11;18.40;99.90
21759;DHT22;11041;50.854;20.580;2022-09-09T17:51:41;18.40;99.90
21759;DHT22;11041;50.854;20.580;2022-09-09T17:54:19;18.40;99.90
21759;DHT22;11041;50.854;20.580;2022-09-09T17:56:46;18.30;99.90
21759;DHT22;11041;50.854;20.580;2022-09-09T17:59:15;18.20;99.90
21759;DHT22;11041;50.854;20.580;2022-09-09T18:01:45;18.20;99.90
21759;DHT22;11041;50.854;20.580;2022-09-09T18:04:14;18.10;99.90
21759;DHT22;11041;50.854;20.580;2022-09-09T18:06:47;18.10;99.90
21759;DHT22;11041;50.854;20.580;2022-09-09T18:09:20;18.10;99.90
21759;DHT22;11041;50.854;20.580;2022-09-09T18:11:52;18.00;99.90
21759;DHT22;11041;50.854;20.580;2022-09-09T18:14:26;18.00;99.90
21759;DHT22;11041;50.854;20.580;2022-09-09T18:16:57;17.90;99.90
21759;DHT22;11041;50.854;20.580;2022-09-09T18:19:26;17.90;99.90
21759;DHT22;11041;50.854;20.580;2022-09-09T18:21:55;17.80;99.90
21759;DHT22;11041;50.854;20.580;2022-09-09T18:24:22;17.80;99.90
21759;DHT22;11041;50.854;20.580;2022-09-09T18:26:50;17.70;99.90
21759;DHT22;11041;50.854;20.580;2022-09-09T18:29:19;17.70;99.90
21759;DHT22;11041;50.854;20.580;2022-09-09T18:31:49;17.60;99.90
21759;DHT22;11041;50.854;20.580;2022-09-09T18:34:17;17.60;99.90
21759;DHT22;11041;50.854;20.580;2022-09-09T18:36:48;17.60;99.90
21759;DHT22;11041;50.854;20.580;2022-09-09T18:39:22;17.60;99.90
21759;DHT22;11041;50.854;20.580;2022-09-09T18:41:54;17.50;99.90
21759;DHT22;11041;50.854;20.580;2022-09-09T18:44:28;17.50;99.90
21759;DHT22;11041;50.854;20.580;2022-09-09T18:46:56;17.40;99.90
21759;DHT22;11041;50.854;20.580;2022-09-09T18:49:24;17.40;99.90
21759;DHT22;11041;50.854;20.580;2022-09-09T18:51:52;17.40;99.90
21759;DHT22;11041;50.854;20.580;2022-09-09T18:54:21;17.40;99.90
21759;DHT22;11041;50.854;20.580;2022-09-09T18:56:49;17.30;99.90
21759;DHT22;11041;50.854;20.580;2022-09-09T18:59:20;17.30;99.90
21759;DHT22;11041;50.854;20.580;2022-09-09T19:01:50;17.20;99.90
21759;DHT22;11041;50.854;20.580;2022-09-09T19:04:19;17.10;99.90
21759;DHT22;11041;50.854;20.580;2022-09-09T19:06:47;17.10;99.90
21759;DHT22;11041;50.854;20.580;2022-09-09T19:09:17;17.10;99.90
21759;DHT22;11041;50.854;20.580;2022-09-09T19:11:44;17.10;99.90
21759;DHT22;11041;50.854;20.580;2022-09-09T19:14:13;17.00;99.90
21759;DHT22;11041;50.854;20.580;2022-09-09T19:16:41;17.00;99.90
21759;DHT22;11041;50.854;20.580;2022-09-09T19:19:21;17.00;99.90
21759;DHT22;11041;50.854;20.580;2022-09-09T19:21:49;17.00;99.90
21759;DHT22;11041;50.854;20.580;2022-09-09T19:24:24;16.90;99.90
21759;DHT22;11041;50.854;20.580;2022-09-09T19:27:00;17.00;99.90
21759;DHT22;11041;50.854;20.580;2022-09-09T19:29:32;16.90;99.90
21759;DHT22;11041;50.854;20.580;2022-09-09T19:32:01;16.90;99.90